Time;durP1;ratioP1;P1;durP2;ratioP2;P2;SDS_P1;SDS_P2;PMS_P1;PMS_P2;Temp;Humidity;BMP_temperature;BMP_pressure;BME280_temperature;BME280_humidity;BME280_pressure;Samples;Min_cycle;Max_cycle;Signal;HPM_P1;HPM_P2
2021/12/03 00:00:43;;;;;;;37.92;23.13;;;;;;;;;;4993915;28;20208;-79
2021/12/03 00:03:10;;;;;;;34.47;22.50;;;;;;;;;;4995503;28;20171;-80
2021/12/03 00:05:36;;;;;;;40.03;23.48;;;;;;;;;;4994179;28;20194;-79
2021/12/03 00:08:02;;;;;;;34.00;24.35;;;;;;;;;;4995157;28;20180;-80
2021/12/03 00:10:28;;;;;;;36.45;22.20;;;;;;;;;;4994813;28;20284;-79
2021/12/03 00:12:58;;;;;;;37.33;22.33;;;;;;;;;;4993994;28;20179;-79
2021/12/03 00:15:25;;;;;;;33.63;23.08;;;;;;;;;;4995830;28;20663;-79
2021/12/03 00:17:51;;;;;;;41.85;23.75;;;;;;;;;;4993642;28;20183;-80
2021/12/03 00:20:18;;;;;;;39.42;25.67;;;;;;;;;;4994648;28;20653;-78
2021/12/03 00:22:45;;;;;;;39.22;24.33;;;;;;;;;;4995298;28;20186;-78
2021/12/03 00:25:12;;;;;;;38.20;24.67;;;;;;;;;;4995146;28;20193;-79
2021/12/03 00:27:38;;;;;;;39.45;23.77;;;;;;;;;;4995166;28;20190;-79
2021/12/03 00:30:05;;;;;;;38.63;24.50;;;;;;;;;;4994543;28;20257;-80
2021/12/03 00:32:31;;;;;;;43.90;25.60;;;;;;;;;;4994956;28;20176;-81
2021/12/03 00:35:00;;;;;;;35.08;23.80;;;;;;;;;;4994835;28;20549;-80
2021/12/03 00:37:26;;;;;;;42.55;26.48;;;;;;;;;;4994043;28;20631;-79
2021/12/03 00:39:52;;;;;;;45.00;24.27;;;;;;;;;;4994420;28;20524;-80
2021/12/03 00:42:19;;;;;;;38.38;25.83;;;;;;;;;;4994831;28;20197;-79
2021/12/03 00:44:51;;;;;;;43.13;25.92;;;;;;;;;;4995041;28;20176;-81
2021/12/03 00:47:17;;;;;;;39.92;26.55;;;;;;;;;;4994715;28;20562;-79
2021/12/03 00:49:43;;;;;;;45.45;26.58;;;;;;;;;;4994325;28;20179;-79
2021/12/03 00:52:09;;;;;;;48.30;28.67;;;;;;;;;;4994470;28;20257;-79
2021/12/03 00:54:35;;;;;;;44.75;26.65;;;;;;;;;;4994573;28;20179;-79
2021/12/03 00:57:02;;;;;;;47.15;29.33;;;;;;;;;;4993450;28;20206;-82
2021/12/03 00:59:28;;;;;;;40.67;24.58;;;;;;;;;;4994208;28;20172;-81
2021/12/03 01:01:54;;;;;;;42.67;25.00;;;;;;;;;;4994328;28;20206;-80
2021/12/03 01:04:20;;;;;;;39.97;25.02;;;;;;;;;;4994322;28;20182;-79
2021/12/03 01:06:46;;;;;;;38.90;23.67;;;;;;;;;;4994468;28;20202;-79
2021/12/03 01:09:13;;;;;;;40.15;24.17;;;;;;;;;;4993985;28;20172;-79
2021/12/03 01:11:39;;;;;;;47.38;24.92;;;;;;;;;;4993963;28;20248;-80
2021/12/03 01:14:05;;;;;;;39.78;24.48;;;;;;;;;;4992795;28;20637;-82
2021/12/03 01:16:31;;;;;;;37.30;23.75;;;;;;;;;;4993953;28;20707;-81
2021/12/03 01:18:57;;;;;;;35.75;23.45;;;;;;;;;;4992530;28;20242;-80
2021/12/03 01:21:24;;;;;;;37.50;22.88;;;;;;;;;;4993598;28;20406;-79
2021/12/03 01:23:50;;;;;;;37.67;22.88;;;;;;;;;;4992518;28;20192;-79
2021/12/03 01:26:16;;;;;;;38.88;22.95;;;;;;;;;;4993905;28;20262;-81
2021/12/03 01:28:43;;;;;;;43.38;24.08;;;;;;;;;;4993916;28;20294;-80
2021/12/03 01:31:09;;;;;;;35.22;21.85;;;;;;;;;;4993410;28;20209;-79
2021/12/03 01:33:35;;;;;;;33.35;19.77;;;;;;;;;;4993775;28;20225;-80
2021/12/03 01:36:01;;;;;;;34.38;21.95;;;;;;;;;;4993674;28;20182;-80
2021/12/03 01:38:27;;;;;;;37.35;21.10;;;;;;;;;;4993861;28;20188;-82
2021/12/03 01:40:53;;;;;;;31.13;19.40;;;;;;;;;;4993386;28;20204;-82
2021/12/03 01:43:24;;;;;;;33.10;20.75;;;;;;;;;;4993687;28;20677;-80
2021/12/03 01:45:55;;;;;;;37.40;21.17;;;;;;;;;;4992375;28;20176;-81
2021/12/03 01:48:21;;;;;;;35.15;19.05;;;;;;;;;;4993480;28;20234;-81
2021/12/03 01:50:47;;;;;;;35.40;21.80;;;;;;;;;;4993152;28;20302;-82
2021/12/03 01:53:16;;;;;;;36.50;23.38;;;;;;;;;;4993512;28;20179;-81
2021/12/03 01:55:43;;;;;;;34.97;20.95;;;;;;;;;;4993472;28;20178;-82
2021/12/03 01:58:10;;;;;;;33.28;22.00;;;;;;;;;;4993833;28;20197;-78
2021/12/03 02:00:38;;;;;;;39.03;19.95;;;;;;;;;;4993565;28;20539;-79
2021/12/03 02:03:05;;;;;;;34.65;21.10;;;;;;;;;;4993922;28;20205;-82
2021/12/03 02:05:31;;;;;;;35.65;20.48;;;;;;;;;;4992740;28;20180;-82
2021/12/03 02:07:57;;;;;;;40.28;23.90;;;;;;;;;;4993778;28;20576;-79
2021/12/03 02:10:24;;;;;;;41.05;21.08;;;;;;;;;;4993371;28;20302;-81
2021/12/03 02:12:51;;;;;;;35.50;20.70;;;;;;;;;;4993654;28;20213;-80
2021/12/03 02:15:17;;;;;;;36.15;21.48;;;;;;;;;;4993977;28;20254;-80
2021/12/03 02:17:43;;;;;;;32.53;20.27;;;;;;;;;;4993705;28;20175;-82
2021/12/03 02:20:10;;;;;;;33.40;21.58;;;;;;;;;;4993245;28;20206;-82
2021/12/03 02:22:37;;;;;;;34.92;19.92;;;;;;;;;;4993614;28;20182;-79
2021/12/03 02:25:03;;;;;;;29.75;20.15;;;;;;;;;;4992172;28;20198;-82
2021/12/03 02:27:29;;;;;;;37.60;19.90;;;;;;;;;;4993812;28;20177;-80
2021/12/03 02:29:55;;;;;;;29.15;20.50;;;;;;;;;;4991982;28;20177;-82
2021/12/03 02:32:21;;;;;;;36.83;19.30;;;;;;;;;;4993444;28;20559;-81
2021/12/03 02:34:47;;;;;;;31.25;19.80;;;;;;;;;;4992450;28;20224;-82
2021/12/03 02:37:13;;;;;;;31.10;19.90;;;;;;;;;;4993562;28;20182;-82
2021/12/03 02:39:40;;;;;;;28.65;17.83;;;;;;;;;;4992012;28;20549;-81
2021/12/03 02:42:06;;;;;;;29.58;19.48;;;;;;;;;;4993508;28;20230;-82
2021/12/03 02:44:32;;;;;;;31.10;19.25;;;;;;;;;;4992356;28;20550;-81
2021/12/03 02:46:58;;;;;;;32.28;18.73;;;;;;;;;;4993322;28;20171;-80
2021/12/03 02:49:24;;;;;;;29.35;20.15;;;;;;;;;;4993108;28;20196;-82
2021/12/03 02:51:50;;;;;;;31.73;18.77;;;;;;;;;;4976175;28;20235;-80
2021/12/03 02:54:15;;;;;;;26.88;17.92;;;;;;;;;;4993600;28;20254;-80
2021/12/03 02:56:41;;;;;;;31.93;18.87;;;;;;;;;;4993405;28;20173;-82
2021/12/03 02:59:07;;;;;;;32.22;18.92;;;;;;;;;;4993312;28;20407;-82
2021/12/03 03:01:33;;;;;;;29.92;18.92;;;;;;;;;;4995900;28;20215;-82
2021/12/03 03:03:59;;;;;;;30.15;17.02;;;;;;;;;;4996992;28;20195;-82
2021/12/03 03:06:26;;;;;;;39.58;18.95;;;;;;;;;;4997040;28;20187;-82
2021/12/03 03:08:52;;;;;;;35.83;18.75;;;;;;;;;;4996913;28;20187;-83
2021/12/03 03:11:21;;;;;;;34.25;18.35;;;;;;;;;;4995139;28;20239;-82
2021/12/03 03:13:47;;;;;;;38.65;19.00;;;;;;;;;;4996819;28;20573;-83
2021/12/03 03:16:14;;;;;;;24.42;16.85;;;;;;;;;;4996868;28;20176;-82
2021/12/03 03:18:40;;;;;;;27.02;15.82;;;;;;;;;;4996769;28;20172;-84
2021/12/03 03:21:07;;;;;;;31.92;17.00;;;;;;;;;;4995470;28;20219;-84
2021/12/03 03:23:36;;;;;;;26.95;18.15;;;;;;;;;;4996521;28;20176;-82
2021/12/03 03:26:03;;;;;;;30.75;17.65;;;;;;;;;;4996779;28;20268;-82
2021/12/03 03:28:29;;;;;;;31.80;17.25;;;;;;;;;;4996537;28;20207;-81
2021/12/03 03:30:57;;;;;;;28.73;17.67;;;;;;;;;;4996147;28;20253;-82
2021/12/03 03:33:23;;;;;;;27.55;16.83;;;;;;;;;;4995118;28;20599;-82
2021/12/03 03:35:49;;;;;;;23.38;15.43;;;;;;;;;;4996463;28;20234;-83
2021/12/03 03:38:16;;;;;;;26.92;16.02;;;;;;;;;;4996447;28;20174;-82
2021/12/03 03:40:43;;;;;;;22.73;15.05;;;;;;;;;;4994911;28;20658;-82
2021/12/03 03:43:09;;;;;;;31.75;16.90;;;;;;;;;;4996411;28;20196;-81
2021/12/03 03:45:35;;;;;;;31.33;15.88;;;;;;;;;;4995147;28;20185;-81
2021/12/03 03:48:02;;;;;;;26.38;17.13;;;;;;;;;;4996382;28;20187;-82
2021/12/03 03:50:28;;;;;;;26.55;16.05;;;;;;;;;;4995788;28;20551;-81
2021/12/03 03:52:55;;;;;;;33.83;17.50;;;;;;;;;;4996147;28;20182;-81
2021/12/03 03:55:21;;;;;;;27.42;16.60;;;;;;;;;;4996181;28;20259;-82
2021/12/03 03:57:48;;;;;;;27.02;15.65;;;;;;;;;;4994685;28;20547;-82
2021/12/03 04:00:16;;;;;;;28.90;15.75;;;;;;;;;;4994306;28;20232;-82
2021/12/03 04:02:43;;;;;;;24.33;15.73;;;;;;;;;;4995974;28;20541;-81
2021/12/03 04:05:09;;;;;;;29.60;16.45;;;;;;;;;;4995991;28;20201;-81
2021/12/03 04:07:35;;;;;;;22.98;15.07;;;;;;;;;;4994524;28;20192;-82
2021/12/03 04:10:01;;;;;;;23.65;15.05;;;;;;;;;;4995532;28;20188;-82
2021/12/03 04:12:27;;;;;;;25.65;15.73;;;;;;;;;;4994439;28;20211;-82
2021/12/03 04:14:53;;;;;;;25.70;15.27;;;;;;;;;;4995753;28;20188;-82
2021/12/03 04:17:19;;;;;;;21.10;14.00;;;;;;;;;;4994563;28;20449;-81
2021/12/03 04:19:45;;;;;;;24.70;14.02;;;;;;;;;;4995238;28;20890;-82
2021/12/03 04:22:15;;;;;;;25.27;14.37;;;2.20;99.90;;;;;;4994409;28;20181;-82
2021/12/03 04:24:41;;;;;;;21.95;13.85;;;2.10;99.90;;;;;;4995482;28;20511;-81
2021/12/03 04:27:07;;;;;;;27.35;13.80;;;;;;;;;;4995446;28;20189;-81
2021/12/03 04:29:33;;;;;;;22.40;14.25;;;;;;;;;;4995104;28;20542;-81
2021/12/03 04:31:59;;;;;;;26.83;13.02;;;;;;;;;;4995133;28;20215;-82
2021/12/03 04:34:25;;;;;;;26.38;15.40;;;;;;;;;;4994164;28;20182;-81
2021/12/03 04:36:51;;;;;;;25.13;15.15;;;;;;;;;;4995260;28;20180;-82
2021/12/03 04:39:18;;;;;;;23.80;14.15;;;;;;;;;;4995096;28;20206;-82
2021/12/03 04:41:44;;;;;;;22.20;13.43;;;;;;;;;;4995311;28;20560;-82
2021/12/03 04:44:10;;;;;;;23.00;13.73;;;;;;;;;;4994045;28;20180;-81
2021/12/03 04:46:36;;;;;;;30.30;14.50;;;;;;;;;;4995119;28;20187;-80
2021/12/03 04:49:02;;;;;;;22.95;13.25;;;;;;;;;;4995044;28;20227;-81
2021/12/03 04:51:28;;;;;;;26.30;14.35;;;;;;;;;;4994624;28;20211;-81
2021/12/03 04:53:54;;;;;;;29.40;14.65;;;;;;;;;;4994869;28;20185;-81
2021/12/03 04:56:20;;;;;;;19.20;14.18;;;;;;;;;;4994883;28;20230;-81
2021/12/03 04:58:46;;;;;;;25.83;13.55;;;;;;;;;;4993639;28;20178;-81
2021/12/03 05:01:12;;;;;;;25.50;15.43;;;;;;;;;;4994426;28;20209;-80
2021/12/03 05:03:38;;;;;;;20.05;12.30;;;;;;;;;;4993539;28;20544;-81
2021/12/03 05:06:08;;;;;;;24.70;13.85;;;;;;;;;;4994611;28;20186;-82
2021/12/03 05:08:34;;;;;;;26.27;14.45;;;;;;;;;;4994689;28;20183;-81
2021/12/03 05:11:00;;;;;;;20.85;13.30;;;;;;;;;;4994182;28;20218;-80
2021/12/03 05:13:28;;;;;;;24.58;14.23;;;;;;;;;;4994772;28;20186;-81
2021/12/03 05:15:54;;;;;;;24.88;13.35;;;;;;;;;;4994450;28;20575;-82
2021/12/03 05:18:21;;;;;;;19.77;11.40;;;;;;;;;;4994414;28;20175;-80
2021/12/03 05:20:49;;;;;;;25.45;13.43;;;;;;;;;;4994126;28;20193;-82
2021/12/03 05:23:15;;;;;;;20.08;11.82;;;;;;;;;;4994228;28;20208;-81
2021/12/03 05:25:42;;;;;;;20.38;11.55;;;;;;;;;;4993059;28;20660;-81
2021/12/03 05:28:08;;;;;;;20.00;11.20;;;;;;;;;;4994407;28;20178;-81
2021/12/03 05:30:35;;;;;;;24.40;12.82;;;;;;;;;;4993896;28;20636;-82
2021/12/03 05:33:01;;;;;;;19.52;10.77;;;;;;;;;;4994236;28;20543;-81
2021/12/03 05:35:28;;;;;;;17.30;10.30;;;;;;;;;;4993073;28;20185;-81
2021/12/03 05:37:54;;;;;;;19.65;10.45;;;;;;;;;;4994177;28;20179;-79
2021/12/03 05:40:20;;;;;;;17.33;11.32;;;;;;;;;;4992450;28;20666;-81
2021/12/03 05:42:47;;;;;;;28.95;10.48;;;;;;;;;;4994148;28;20525;-80
2021/12/03 05:45:23;;;;;;;20.40;10.70;;;;;;;;;;4992769;28;20182;-81
2021/12/03 05:47:49;;;;;;;19.52;10.57;;;;;;;;;;4992775;28;20183;-82
2021/12/03 05:50:15;;;;;;;14.90;9.45;;;;;;;;;;4993608;28;20344;-82
2021/12/03 05:52:42;;;;;;;18.00;9.60;;;;;;;;;;4994330;28;20177;-80
2021/12/03 05:55:08;;;;;;;24.05;10.55;;;;;;;;;;4994026;28;20173;-80
2021/12/03 05:57:34;;;;;;;19.27;9.07;;;;;;;;;;4993980;28;20597;-81
2021/12/03 06:00:00;;;;;;;16.35;9.95;;;;;;;;;;4993584;28;20210;-81
2021/12/03 06:02:26;;;;;;;16.52;9.60;;;;;;;;;;4993868;28;20216;-81
2021/12/03 06:04:52;;;;;;;20.48;10.23;;;;;;;;;;4993938;28;20193;-80
2021/12/03 06:07:18;;;;;;;18.77;9.38;;;;;;;;;;4992586;28;20250;-82
2021/12/03 06:09:45;;;;;;;23.30;11.43;;;;;;;;;;4993598;28;20616;-82
2021/12/03 06:12:11;;;;;;;23.35;10.23;;;;;;;;;;4993775;28;20298;-81
2021/12/03 06:14:37;;;;;;;16.33;9.85;;;;;;;;;;4993636;28;20177;-81
2021/12/03 06:17:04;;;;;;;15.20;9.43;;;;;;;;;;4993748;28;20193;-81
2021/12/03 06:19:30;;;;;;;17.60;9.10;;;;;;;;;;4993199;28;20424;-81
2021/12/03 06:21:56;;;;;;;16.02;9.27;;;;;;;;;;4993616;28;20202;-81
2021/12/03 06:24:22;;;;;;;22.13;10.82;;;;;;;;;;4993628;28;20331;-82
2021/12/03 06:26:48;;;;;;;15.60;9.55;;;;;;;;;;4993559;28;20240;-81
2021/12/03 06:29:14;;;;;;;18.67;10.30;;;;;;;;;;4993605;28;20191;-81
2021/12/03 06:31:40;;;;;;;17.13;9.40;;;;;;;;;;4992225;28;20975;-81
2021/12/03 06:34:07;;;;;;;16.35;10.55;;;;;;;;;;4993723;28;20178;-81
2021/12/03 06:36:33;;;;;;;17.05;9.70;;;;;;;;;;4996981;28;20561;-81
2021/12/03 06:38:59;;;;;;;19.52;11.00;;;;;;;;;;4997581;28;20175;-81
2021/12/03 06:41:25;;;;;;;18.40;10.93;;;;;;;;;;4995982;28;20285;-81
2021/12/03 06:43:51;;;;;;;18.67;9.93;;;;;;;;;;4997620;28;20221;-81
2021/12/03 06:46:17;;;;;;;22.15;12.05;;;;;;;;;;4997200;28;20214;-81
2021/12/03 06:48:43;;;;;;;20.33;9.63;;;;;;;;;;4997345;28;20604;-81
2021/12/03 06:51:10;;;;;;;18.65;9.60;;;;;;;;;;4996856;28;20214;-82
2021/12/03 06:53:42;;;;;;;16.55;9.40;;;;;;;;;;4997293;28;20536;-83
2021/12/03 06:56:11;;;;;;;22.75;9.57;;;;;;;;;;4997275;28;20260;-83
2021/12/03 06:58:37;;;;;;;16.77;9.43;;;;;;;;;;4996007;28;20201;-83
2021/12/03 07:01:03;;;;;;;17.75;8.82;;;;;;;;;;4995460;28;20722;-83
2021/12/03 07:03:29;;;;;;;20.27;9.43;;;;;;;;;;4997111;28;20182;-85
2021/12/03 07:05:55;;;;;;;16.35;7.70;;;;;;;;;;4997244;28;20186;-83
2021/12/03 07:08:21;;;;;;;17.77;8.00;;;;;;;;;;4997054;28;20545;-83
2021/12/03 07:10:47;;;;;;;19.45;8.30;;;;;;;;;;4995206;28;20210;-83
2021/12/03 07:13:13;;;;;;;16.02;7.22;;;;;;;;;;4996880;28;20181;-83
2021/12/03 07:15:39;;;;;;;17.95;8.90;;;;;;;;;;4995823;28;20176;-83
2021/12/03 07:18:05;;;;;;;11.55;6.20;;;;;;;;;;4996893;28;20337;-83
2021/12/03 07:20:31;;;;;;;14.40;7.90;;;;;;;;;;4996545;28;20234;-83
2021/12/03 07:22:57;;;;;;;14.52;6.68;;;;;;;;;;4996914;28;20193;-83
2021/12/03 07:25:23;;;;;;;16.05;6.90;;;;;;;;;;4995276;28;20205;-83
2021/12/03 07:27:49;;;;;;;19.55;6.53;;;;;;;;;;4996830;28;20174;-82
2021/12/03 07:30:16;;;;;;;13.80;7.05;;;;;;;;;;4994882;28;20570;-82
2021/12/03 07:32:43;;;;;;;16.52;6.47;;;;;;;;;;4996522;28;20180;-82
2021/12/03 07:35:09;;;;;;;12.15;6.95;;;;;;;;;;4996371;28;20225;-83
2021/12/03 07:37:35;;;;;;;17.08;6.55;;;;;;;;;;4996637;28;20188;-82
2021/12/03 07:40:04;;;;;;;14.35;7.13;;;;;;;;;;4996033;28;20262;-82
2021/12/03 07:42:31;;;;;;;13.73;6.70;;;;;;;;;;4995162;28;20284;-82
2021/12/03 07:44:57;;;;;;;18.35;7.85;;;;;;;;;;4996243;28;20187;-82
2021/12/03 07:47:23;;;;;;;12.00;7.05;;;;;;;;;;4995758;28;20199;-88
2021/12/03 07:52:24;;;;;;;20.55;6.50;;;;;;;;;;5013144;28;20225;-82
2021/12/03 07:54:51;;;;;;;17.17;6.05;;;;;;;;;;5015598;28;20164;-82
2021/12/03 07:57:17;;;;;;;9.75;5.65;;;;;;;;;;5015290;28;20177;-82
2021/12/03 07:59:44;;;;;;;8.32;5.00;;;;;;;;;;5015267;28;20543;-81
2021/12/03 08:02:10;;;;;;;21.35;5.50;;;;;;;;;;4996129;28;20178;-81
2021/12/03 08:04:36;;;;;;;11.68;5.07;;;;;;;;;;4996067;28;20193;-85
2021/12/03 08:07:02;;;;;;;10.48;4.13;;;;;;;;;;4994648;28;20186;-81
2021/12/03 08:09:29;;;;;;;8.32;4.43;;;;;;;;;;4995468;28;20651;-80
2021/12/03 08:11:55;;;;;;;16.23;5.82;;;;;;;;;;4995637;28;20285;-81
2021/12/03 08:14:21;;;;;;;13.85;3.83;;;;;;;;;;4995739;28;20180;-81
2021/12/03 08:16:47;;;;;;;9.27;3.00;;;;;;;;;;4995734;28;20176;-81
2021/12/03 08:19:13;;;;;;;8.63;3.22;;;;;;;;;;4995281;28;20229;-80
2021/12/03 08:21:39;;;;;;;6.25;3.30;;;;;;;;;;4995445;28;20673;-80
2021/12/03 08:24:05;;;;;;;6.07;2.78;;;;;;;;;;4995502;28;20177;-80
2021/12/03 08:26:32;;;;;;;7.80;3.80;;;;;;;;;;4994282;28;20190;-81
2021/12/03 08:28:58;;;;;;;10.25;3.20;;;;;;;;;;4995015;28;20186;-81
2021/12/03 08:31:24;;;;;;;5.57;3.00;;;;;;;;;;4990212;28;20206;-80
2021/12/03 08:33:52;;;;;;;8.18;3.00;;;;;;;;;;4975588;28;20410;-81
2021/12/03 08:36:18;;;;;;;10.05;3.00;;;;;;;;;;4975622;28;20203;-81
2021/12/03 08:38:44;;;;;;;14.07;3.35;;;;;;;;;;4975933;28;20245;-81
2021/12/03 08:41:15;;;;;;;9.02;2.80;;;;;;;;;;4975377;28;20556;-80
2021/12/03 08:43:41;;;;;;;12.70;3.45;;;;;;;;;;4975729;28;20179;-81
2021/12/03 08:46:10;;;;;;;7.22;3.53;;;;;;;;;;4975606;28;20174;-80
2021/12/03 08:48:42;;;;;;;8.15;2.63;;;;;;;;;;4975592;28;20180;-80
2021/12/03 08:56:29;;;;;;;5.78;3.20;;;;;;;;;;4975843;28;20198;-81
2021/12/03 08:58:55;;;;;;;3.88;2.58;;;;;;;;;;4989655;28;20276;-80
2021/12/03 09:01:21;;;;;;;9.05;2.10;;;;;;;;;;4990023;28;20210;-80
2021/12/03 09:03:48;;;;;;;6.80;2.70;;;;;;;;;;4975378;28;20165;-79
2021/12/03 09:06:14;;;;;;;14.15;2.72;;;;;;;;;;4975392;28;20184;-80
2021/12/03 09:08:40;;;;;;;4.97;1.98;;;;;;;;;;4975229;28;20187;-79
2021/12/03 09:11:06;;;;;;;10.32;3.38;;;;;;;;;;4974507;28;20215;-80
2021/12/03 09:13:32;;;;;;;6.10;2.47;;;;;;;;;;4975335;28;20179;-80
2021/12/03 09:16:04;;;;;;;10.27;3.13;;;;;;;;;;4975471;28;20195;-80
2021/12/03 09:18:33;;;;;;;5.47;2.53;;;;;;;;;;4974115;28;20266;-79
2021/12/03 09:21:06;;;;;;;8.70;2.97;;;;;;;;;;4989586;28;20661;-79
2021/12/03 09:23:51;;;;;;;11.40;3.15;;;;;;;;;;4975036;28;20230;-80
2021/12/03 09:26:18;;;;;;;9.30;2.92;;;;;;;;;;4974980;28;20172;-79
2021/12/03 09:28:46;;;;;;;7.85;3.15;;;;;;;;;;4989830;28;20270;-80
2021/12/03 09:31:13;;;;;;;14.68;3.08;;;;;;;;;;4974531;28;20635;-80
2021/12/03 09:33:41;;;;;;;12.68;4.32;;;;;;;;;;4975148;28;20181;-80
2021/12/03 09:36:09;;;;;;;7.80;2.58;;;;;;;;;;4974816;28;20199;-81
2021/12/03 09:38:36;;;;;;;9.90;2.92;;;;;;;;;;4989906;28;20540;-79
2021/12/03 09:41:08;;;;;;;9.40;4.00;;;;;;;;;;4974453;28;20196;-78
2021/12/03 09:43:39;;;;;;;5.97;3.20;;;;;;;;;;4989962;28;20182;-79
2021/12/03 09:46:23;;;;;;;9.40;2.80;;;;;;;;;;4974671;28;20182;-80
2021/12/03 09:49:03;;;;;;;6.05;3.20;;;;;;;;;;4974801;28;20164;-80
2021/12/03 09:51:33;;;;;;;6.53;2.60;;;;;;;;;;4974239;28;20764;-80
2021/12/03 09:56:27;;;;;;;6.72;2.67;;;;;;;;;;4974802;28;20177;-81
2021/12/03 10:04:17;;;;;;;10.85;3.47;;;;;;;;;;4974851;28;20179;-81
2021/12/03 10:10:13;;;;;;;15.80;3.95;;;;;;;;;;4974216;28;20191;-79
2021/12/03 10:15:13;;;;;;;10.93;2.70;;;;;;;;;;4974607;28;20559;-80
2021/12/03 10:17:46;;;;;;;8.95;2.70;;;;;;;;;;4974261;28;20583;-80
2021/12/03 10:33:51;;;;;;;11.93;5.15;;;;;;;;;;4974561;28;20271;-80
2021/12/03 10:41:39;;;;;;;12.05;3.05;;;;;;;;;;4991737;28;20724;-80
2021/12/03 10:49:43;;;;;;;17.30;3.40;;;;;;;;;;4993370;28;20179;-79
2021/12/03 10:52:23;;;;;;;7.00;2.67;;;;;;;;;;4992432;28;20218;-80
2021/12/03 11:00:25;;;;;;;6.13;2.15;;;;;;;;;;4992989;28;20263;-78
2021/12/03 11:10:57;;;;;;;5.80;2.53;;;;;;;;;;4993316;28;20864;-80
2021/12/03 11:15:04;;;;;;;8.13;2.47;;;;;;;;;;4993531;28;20213;-78
2021/12/03 11:17:37;;;;;;;6.32;3.45;;;;;;;;;;4993221;28;20183;-79
2021/12/03 11:52:29;;;;;;;4.93;3.13;;;;;;;;;;4977002;28;20214;-82
2021/12/03 11:58:50;;;;;;;5.20;2.53;;;;;;;;;;4976912;28;20195;-82
2021/12/03 12:04:22;;;;;;;5.95;2.25;;;;;;;;;;4977312;28;20194;-82
2021/12/03 13:00:16;;;;;;;5.43;2.20;;;;;;;;;;4995295;28;20315;-80
2021/12/03 13:10:32;;;;;;;4.15;2.35;;;;;;;;;;4994340;28;20198;-80
2021/12/03 13:26:45;;;;;;;4.00;2.55;;;;;;;;;;4994617;28;20202;-81
2021/12/03 14:05:08;;;;;;;3.08;2.20;;;;;;;;;;4994244;28;20187;-81
2021/12/03 14:07:42;;;;;;;3.72;1.80;;;;;;;;;;4993673;28;20195;-81
2021/12/03 14:42:32;;;;;;;2.47;1.45;;;;;;;;;;4994125;28;20199;-80
2021/12/03 14:45:14;;;;;;;2.03;1.65;;;;;;;;;;4993826;28;20231;-80
2021/12/03 14:47:55;;;;;;;2.17;1.45;;;;;;;;;;4993555;28;20241;-80
2021/12/03 14:55:38;;;;;;;2.00;1.90;;;;;;;;;;4993612;28;20235;-80
2021/12/03 14:58:12;;;;;;;4.50;1.70;;;;;;;;;;4995773;28;20206;-82
2021/12/03 15:08:07;;;;;;;4.68;2.30;;;;;;;;;;4997358;28;20177;-82
2021/12/03 15:10:50;;;;;;;5.07;2.08;;;;;;;;;;4996518;28;20687;-85
2021/12/03 15:14:04;;;;;;;3.25;1.60;;;;;;;;;;4997095;28;20183;-85
2021/12/03 15:27:57;;;;;;;1.90;1.45;;;;;;;;;;4975164;28;20235;-86
2021/12/03 16:08:44;;;;;;;10.38;4.40;;;;;;;;;;4996023;28;20222;-83
2021/12/03 16:14:15;;;;;;;3.08;1.55;;;;;;;;;;4995792;28;20168;-84
2021/12/03 16:22:25;;;;;;;4.35;1.25;;;;;;;;;;4987307;28;20672;-84
2021/12/03 16:43:55;;;;;;;2.20;1.20;;;;;;;;;;4995469;28;20179;-83
2021/12/03 16:51:50;;;;;;;3.50;1.80;;;;;;;;;;4995050;28;20223;-84
2021/12/03 16:54:22;;;;;;;3.17;1.45;;;;;;;;;;4995181;28;20262;-83
2021/12/03 16:56:53;;;;;;;3.78;1.80;;;;;;;;;;4995107;28;20172;-84
2021/12/03 16:59:20;;;;;;;3.53;1.50;;;;;;;;;;4994617;28;20171;-83
2021/12/03 17:09:24;;;;;;;3.47;1.55;;;;;;;;;;4994429;28;20190;-83
2021/12/03 17:12:03;;;;;;;6.18;2.00;;;;;;;;;;4995034;28;20199;-83
2021/12/03 17:52:09;;;;;;;2.25;2.05;;;;;;;;;;4993985;28;20222;-84
2021/12/03 17:57:08;;;;;;;2.80;2.45;;;;;;;;;;4994080;28;20187;-84
2021/12/03 17:59:41;;;;;;;3.20;2.88;;;;;;;;;;4993712;28;20155;-84
2021/12/03 18:02:18;;;;;;;3.05;2.05;;;;;;;;;;4993790;28;20206;-83
2021/12/03 18:05:01;;;;;;;5.40;3.22;;;;;;;;;;4993931;28;20173;-83
2021/12/03 18:07:39;;;;;;;5.07;1.60;;;;;;;;;;4992628;28;20671;-83
2021/12/03 18:11:26;;;;;;;3.22;2.55;;;;;;;;;;4993446;28;20626;-83
2021/12/03 18:55:47;;;;;;;2.90;2.53;;;;;;;;;;4997492;28;20275;-85
2021/12/03 18:58:13;;;;;;;3.15;1.75;;;;;;;;;;4997162;28;20168;-84
2021/12/03 19:00:44;;;;;;;2.40;2.20;;;;;;;;;;4995793;28;20237;-86
2021/12/03 19:03:25;;;;;;;4.20;2.20;;;;;;;;;;4995897;28;20793;-84
2021/12/03 19:11:06;;;;;;;5.20;2.40;;;;;;;;;;4995452;28;20221;-81
2021/12/03 19:13:39;;;;;;;5.85;3.95;;;;;;;;;;4997034;28;20222;-82
2021/12/03 19:16:11;;;;;;;3.00;2.80;;;;;;;;;;4995807;28;20167;-81
2021/12/03 19:18:37;;;;;;;2.30;2.10;;;;;;;;;;4996828;28;20179;-82
2021/12/03 19:21:08;;;;;;;4.03;2.92;;;;;;;;;;4996579;28;20200;-82
2021/12/03 19:23:34;;;;;;;6.03;5.53;;;;;;;;;;4997141;28;20194;-82
2021/12/03 19:26:01;;;;;;;5.35;4.57;;;;;;;;;;4995539;28;20189;-82
2021/12/03 19:28:27;;;;;;;4.03;3.45;;;;;;;;;;4996637;28;20188;-83
2021/12/03 19:30:56;;;;;;;5.45;5.00;;;;;;;;;;4996221;28;20202;-82
2021/12/03 19:33:23;;;;;;;20.77;18.77;;;;;;;;;;4996415;28;20515;-82
2021/12/03 19:35:49;;;;;;;14.15;12.70;;;;;;;;;;4996527;28;20210;-82
2021/12/03 19:38:17;;;;;;;153.40;115.88;;;;;;;;;;4996526;28;20179;-82
2021/12/03 19:40:52;;;;;;;22.85;21.27;;;;;;;;;;4994870;28;20306;-82
2021/12/03 19:43:24;;;;;;;3.58;3.30;;;;;;;;;;4994648;28;20189;-82
2021/12/03 19:45:58;;;;;;;6.63;5.97;;;;;;;;;;4996309;28;20174;-82
2021/12/03 19:48:33;;;;;;;7.43;6.80;;;;;;;;;;4996181;28;20152;-82
2021/12/03 19:50:59;;;;;;;11.90;10.88;;;;;;;;;;4994408;28;20612;-82
2021/12/03 19:53:30;;;;;;;42.30;38.00;;;;;;;;;;4996186;28;20167;-82
2021/12/03 19:55:56;;;;;;;4.70;4.18;;;;;;;;;;4995023;28;20198;-81
2021/12/03 19:58:22;;;;;;;6.63;4.72;;;;;;;;;;4994893;28;20652;-81
2021/12/03 20:00:50;;;;;;;13.48;9.80;;;;;;;;;;4995544;28;20198;-81
2021/12/03 20:03:16;;;;;;;7.00;4.50;;;;;;;;;;4996155;28;20195;-82
2021/12/03 20:05:42;;;;;;;5.70;4.75;;;;;;;;;;4995917;28;20248;-81
2021/12/03 20:08:09;;;;;;;5.28;4.72;;;;;;;;;;4994591;28;20676;-82
2021/12/03 20:10:41;;;;;;;35.67;27.73;;;;;;;;;;4995538;28;20215;-82
2021/12/03 20:13:09;;;;;;;10.57;8.27;;;;;;;;;;4995808;28;20258;-82
2021/12/03 20:18:33;;;;;;;4.88;3.70;;;;;;;;;;4984622;28;20184;-82
2021/12/03 20:20:59;;;;;;;5.22;4.82;;;;;;;;;;4994137;28;20639;-81
2021/12/03 20:23:44;;;;;;;3.05;2.85;;;;;;;;;;4995605;28;20178;-82
2021/12/03 20:31:18;;;;;;;6.55;4.57;;;;;;;;;;4995192;28;20214;-82
2021/12/03 20:34:01;;;;;;;4.13;3.38;;;;;;;;;;4995454;28;20199;-81
2021/12/03 20:36:50;;;;;;;7.68;4.40;;;;;;;;;;4995413;28;20172;-81
2021/12/03 20:39:19;;;;;;;12.70;5.60;;;;;;;;;;4994575;28;20198;-82
2021/12/03 20:42:08;;;;;;;7.10;2.95;;;;;;;;;;4995179;28;20203;-81
2021/12/03 20:49:58;;;;;;;8.93;5.03;;;;;;;;;;4994871;28;20226;-81
2021/12/03 20:52:37;;;;;;;5.55;4.30;;;;;;;;;;4995071;28;20211;-82
2021/12/03 21:08:39;;;;;;;1.90;1.80;;;;;;;;;;4994884;28;20245;-82
2021/12/03 21:11:26;;;;;;;1.50;1.40;;;;;;;;;;4994224;28;20216;-82
2021/12/03 21:13:57;;;;;;;7.80;6.28;;;;;;;;;;4994685;28;20238;-81
2021/12/03 21:21:34;;;;;;;8.00;6.18;;;;;;;;;;4994577;28;20671;-82
2021/12/03 21:24:01;;;;;;;5.38;4.40;;;;;;;;;;4993201;28;20237;-83
2021/12/03 21:26:31;;;;;;;22.40;11.68;;;;;;;;;;4994585;28;20167;-82
2021/12/03 21:31:53;;;;;;;3.58;3.00;;;;;;;;;;4994117;28;20221;-83
2021/12/03 21:42:14;;;;;;;2.50;2.30;;;;;;;;;;4992994;28;20190;-82
2021/12/03 21:44:40;;;;;;;4.15;2.95;;;;;;;;;;4992982;28;20554;-82
2021/12/03 21:47:07;;;;;;;14.10;10.85;;;;;;;;;;4994007;28;20180;-82
2021/12/03 21:49:33;;;;;;;4.07;2.72;;;;;;;;;;4993701;28;20208;-82
2021/12/03 21:51:59;;;;;;;7.00;5.57;;;;;;;;;;4993804;28;20207;-82
2021/12/03 21:54:26;;;;;;;3.28;2.30;;;;;;;;;;4992854;28;20175;-81
2021/12/03 21:57:00;;;;;;;2.35;1.25;;;;;;;;;;4993940;28;20614;-82
2021/12/03 21:59:26;;;;;;;8.23;5.07;;;;;;;;;;4993647;28;20170;-82
2021/12/03 22:01:52;;;;;;;3.63;1.50;;;;;;;;;;4992668;28;20227;-81
2021/12/03 22:04:18;;;;;;;20.57;12.00;;;;;;;;;;4993893;28;20179;-82
2021/12/03 22:06:44;;;;;;;3.70;2.80;;;;;;;;;;4993818;28;20773;-82
2021/12/03 22:09:11;;;;;;;0.82;0.80;;;;;;;;;;4992491;28;20509;-82
2021/12/03 22:11:38;;;;;;;5.95;3.03;;;;;;;;;;4993642;28;20574;-82
2021/12/03 22:14:04;;;;;;;15.35;8.85;;;;;;;;;;4993783;28;20611;-82
2021/12/03 22:16:30;;;;;;;15.00;7.65;;;;;;;;;;4993917;28;20202;-82
2021/12/03 22:18:56;;;;;;;1.40;1.20;;;;;;;;;;4993860;28;20180;-82
2021/12/03 22:21:22;;;;;;;1.15;1.05;;;;;;;;;;4992092;28;20207;-82
2021/12/03 22:23:48;;;;;;;2.10;1.30;;;;;;;;;;4993444;28;20268;-83
2021/12/03 22:26:16;;;;;;;1.08;0.98;;;;;;;;;;4993638;28;20238;-82
2021/12/03 22:28:43;;;;;;;1.90;0.93;;;;;;;;;;4993745;28;20183;-81
2021/12/03 22:31:09;;;;;;;1.05;0.95;;;;;;;;;;4993207;28;20207;-82